Terminal Aerodrome Forecast
Issued by NWS

Current Version | Previous Version | Text Only | Print | Product List | Glossary On
Versions: 1 2 3 4 5 6 7 8 9 10 11 12 13 14 15 16 17 18 19 20 21 22 23 24 25 26 27 28 29 30 31 32 33 34 35 36 37 38 39 40 41 42 43 44 45 46
000
FTUS45 KGJT 311346 AAA
TAFDRO
TAF AMD
KDRO 311346Z 3114/0112 00000KT 6SM BR VCSH FEW004 OVC025
      TEMPO 3114/3118 2SM -RA BR SCT004 OVC012
     FM311800 VRB03KT 5SM BR VCSH BKN015 OVC030
     FM312100 27006KT P6SM VCSH SCT020 BKN040
     FM010200 35003KT P6SM VCFG SCT010 BKN050=

USA.gov is the U.S. government's official web portal to all federal, state and local government web resources and services.